sensor_id;sensor_type;location;lat;lon;timestamp;temperature;humidity
66375;DHT22;53173;52.176;5.314;2023-05-07T11:41:43;21.00;86.90
66375;DHT22;53173;52.176;5.314;2023-05-07T11:44:10;21.10;86.60
66375;DHT22;53173;52.176;5.314;2023-05-07T11:46:37;21.20;86.50
66375;DHT22;53173;52.176;5.314;2023-05-07T11:49:09;21.30;86.30
66375;DHT22;53173;52.176;5.314;2023-05-07T11:51:36;21.30;86.20
66375;DHT22;53173;52.176;5.314;2023-05-07T11:54:04;21.40;87.40
66375;DHT22;53173;52.176;5.314;2023-05-07T11:56:35;21.50;86.50
66375;DHT22;53173;52.176;5.314;2023-05-07T11:59:02;21.60;85.50
66375;DHT22;53173;52.176;5.314;2023-05-07T12:01:29;21.60;84.50
66375;DHT22;53173;52.176;5.314;2023-05-07T12:03:55;21.70;84.10
66375;DHT22;53173;52.176;5.314;2023-05-07T12:06:22;21.70;84.00
66375;DHT22;53173;52.176;5.314;2023-05-07T12:08:49;21.70;83.40
66375;DHT22;53173;52.176;5.314;2023-05-07T12:11:22;21.80;82.50
66375;DHT22;53173;52.176;5.314;2023-05-07T12:13:49;21.80;81.90
66375;DHT22;53173;52.176;5.314;2023-05-07T12:16:17;21.90;81.50
66375;DHT22;53173;52.176;5.314;2023-05-07T12:18:45;22.00;80.80
66375;DHT22;53173;52.176;5.314;2023-05-07T12:21:12;22.00;80.40
66375;DHT22;53173;52.176;5.314;2023-05-07T12:23:40;22.10;81.00
66375;DHT22;53173;52.176;5.314;2023-05-07T12:26:07;22.20;81.10
66375;DHT22;53173;52.176;5.314;2023-05-07T12:28:38;22.30;80.80
66375;DHT22;53173;52.176;5.314;2023-05-07T12:31:06;22.40;81.50
66375;DHT22;53173;52.176;5.314;2023-05-07T12:33:34;22.50;80.20
66375;DHT22;53173;52.176;5.314;2023-05-07T12:36:06;22.60;80.20
66375;DHT22;53173;52.176;5.314;2023-05-07T12:38:37;22.70;80.20
66375;DHT22;53173;52.176;5.314;2023-05-07T12:41:06;22.80;79.50
66375;DHT22;53173;52.176;5.314;2023-05-07T12:43:34;22.90;78.80
66375;DHT22;53173;52.176;5.314;2023-05-07T12:46:03;23.00;78.00
66375;DHT22;53173;52.176;5.314;2023-05-07T12:48:31;23.00;77.40
66375;DHT22;53173;52.176;5.314;2023-05-07T12:51:02;23.00;77.20
66375;DHT22;53173;52.176;5.314;2023-05-07T12:53:30;23.00;76.80
66375;DHT22;53173;52.176;5.314;2023-05-07T12:55:58;22.90;77.10
66375;DHT22;53173;52.176;5.314;2023-05-07T12:58:27;22.70;77.70
66375;DHT22;53173;52.176;5.314;2023-05-07T13:00:55;22.60;78.10
66375;DHT22;53173;52.176;5.314;2023-05-07T13:03:29;22.50;78.10
66375;DHT22;53173;52.176;5.314;2023-05-07T13:06:02;22.40;78.10
66375;DHT22;53173;52.176;5.314;2023-05-07T13:08:40;22.30;78.30
66375;DHT22;53173;52.176;5.314;2023-05-07T13:11:10;22.30;78.40
66375;DHT22;53173;52.176;5.314;2023-05-07T13:13:38;22.20;78.50
66375;DHT22;53173;52.176;5.314;2023-05-07T13:16:07;22.10;78.40
66375;DHT22;53173;52.176;5.314;2023-05-07T13:18:35;22.10;78.40
66375;DHT22;53173;52.176;5.314;2023-05-07T13:21:03;22.10;78.40
66375;DHT22;53173;52.176;5.314;2023-05-07T13:23:30;22.00;78.30
66375;DHT22;53173;52.176;5.314;2023-05-07T13:25:57;22.00;78.20
66375;DHT22;53173;52.176;5.314;2023-05-07T13:28:24;21.90;78.60
66375;DHT22;53173;52.176;5.314;2023-05-07T13:30:52;21.90;78.50
66375;DHT22;53173;52.176;5.314;2023-05-07T13:33:21;21.80;78.30
66375;DHT22;53173;52.176;5.314;2023-05-07T13:35:48;21.70;78.40
66375;DHT22;53173;52.176;5.314;2023-05-07T13:38:15;21.70;78.80
66375;DHT22;53173;52.176;5.314;2023-05-07T13:40:42;21.70;78.70
66375;DHT22;53173;52.176;5.314;2023-05-07T13:43:09;21.60;78.50
66375;DHT22;53173;52.176;5.314;2023-05-07T13:45:37;21.60;78.80
66375;DHT22;53173;52.176;5.314;2023-05-07T13:48:04;21.60;79.20
66375;DHT22;53173;52.176;5.314;2023-05-07T13:50:31;21.50;79.60
66375;DHT22;53173;52.176;5.314;2023-05-07T13:52:58;21.40;79.70
66375;DHT22;53173;52.176;5.314;2023-05-07T13:55:25;21.40;79.70
66375;DHT22;53173;52.176;5.314;2023-05-07T13:58:00;21.40;80.00
66375;DHT22;53173;52.176;5.314;2023-05-07T14:00:28;21.30;79.80
66375;DHT22;53173;52.176;5.314;2023-05-07T14:02:56;21.30;79.40
66375;DHT22;53173;52.176;5.314;2023-05-07T14:05:23;21.30;79.20
66375;DHT22;53173;52.176;5.314;2023-05-07T14:07:51;21.20;80.30
66375;DHT22;53173;52.176;5.314;2023-05-07T14:10:19;21.30;81.80
66375;DHT22;53173;52.176;5.314;2023-05-07T14:12:46;21.10;83.20
66375;DHT22;53173;52.176;5.314;2023-05-07T14:15:14;21.10;84.60
66375;DHT22;53173;52.176;5.314;2023-05-07T14:17:43;20.90;85.80
66375;DHT22;53173;52.176;5.314;2023-05-07T14:20:11;20.90;87.10
66375;DHT22;53173;52.176;5.314;2023-05-07T14:22:39;20.80;87.80
66375;DHT22;53173;52.176;5.314;2023-05-07T14:25:07;20.70;88.90
66375;DHT22;53173;52.176;5.314;2023-05-07T14:27:34;20.60;90.30
66375;DHT22;53173;52.176;5.314;2023-05-07T14:30:01;20.40;91.10
66375;DHT22;53173;52.176;5.314;2023-05-07T14:32:29;20.30;91.30
66375;DHT22;53173;52.176;5.314;2023-05-07T14:34:56;20.40;91.50
66375;DHT22;53173;52.176;5.314;2023-05-07T14:37:31;20.40;91.80
66375;DHT22;53173;52.176;5.314;2023-05-07T14:40:07;20.30;92.00
66375;DHT22;53173;52.176;5.314;2023-05-07T14:42:50;20.20;91.90
66375;DHT22;53173;52.176;5.314;2023-05-07T14:45:17;19.90;92.60
66375;DHT22;53173;52.176;5.314;2023-05-07T14:47:44;19.90;93.00
66375;DHT22;53173;52.176;5.314;2023-05-07T14:50:11;19.80;93.20
66375;DHT22;53173;52.176;5.314;2023-05-07T14:56:08;19.70;93.30
66375;DHT22;53173;52.176;5.314;2023-05-07T14:58:35;19.70;93.40
66375;DHT22;53173;52.176;5.314;2023-05-07T15:01:02;19.70;93.60
66375;DHT22;53173;52.176;5.314;2023-05-07T15:03:29;19.60;93.90
66375;DHT22;53173;52.176;5.314;2023-05-07T15:05:56;19.60;94.20
66375;DHT22;53173;52.176;5.314;2023-05-07T15:08:23;19.60;94.50
66375;DHT22;53173;52.176;5.314;2023-05-07T15:10:50;19.60;94.80
66375;DHT22;53173;52.176;5.314;2023-05-07T15:13:23;19.50;94.90
66375;DHT22;53173;52.176;5.314;2023-05-07T15:15:49;19.30;95.30
66375;DHT22;53173;52.176;5.314;2023-05-07T15:18:17;19.20;95.50
66375;DHT22;53173;52.176;5.314;2023-05-07T15:20:43;19.10;95.80
66375;DHT22;53173;52.176;5.314;2023-05-07T15:23:11;18.80;95.90
66375;DHT22;53173;52.176;5.314;2023-05-07T15:25:44;18.80;95.90
66375;DHT22;53173;52.176;5.314;2023-05-07T15:28:12;18.40;95.70
66375;DHT22;53173;52.176;5.314;2023-05-07T15:30:39;18.30;95.90
66375;DHT22;53173;52.176;5.314;2023-05-07T15:33:11;18.20;96.10
66375;DHT22;53173;52.176;5.314;2023-05-07T15:35:38;18.00;96.30
66375;DHT22;53173;52.176;5.314;2023-05-07T15:38:05;17.90;96.50
66375;DHT22;53173;52.176;5.314;2023-05-07T15:40:32;17.50;96.90
66375;DHT22;53173;52.176;5.314;2023-05-07T15:43:08;17.50;97.20
66375;DHT22;53173;52.176;5.314;2023-05-07T15:45:39;17.30;97.40
66375;DHT22;53173;52.176;5.314;2023-05-07T15:48:08;18.10;98.00
66375;DHT22;53173;52.176;5.314;2023-05-07T15:50:35;17.10;98.00
66375;DHT22;53173;52.176;5.314;2023-05-07T15:53:07;17.10;98.20
66375;DHT22;53173;52.176;5.314;2023-05-07T15:55:34;17.20;98.00
66375;DHT22;53173;52.176;5.314;2023-05-07T15:58:01;17.30;98.00
66375;DHT22;53173;52.176;5.314;2023-05-07T16:00:29;17.30;98.40
66375;DHT22;53173;52.176;5.314;2023-05-07T16:02:56;17.40;98.10
66375;DHT22;53173;52.176;5.314;2023-05-07T16:05:23;17.30;98.10
66375;DHT22;53173;52.176;5.314;2023-05-07T16:07:50;17.30;98.10
66375;DHT22;53173;52.176;5.314;2023-05-07T16:10:17;17.30;98.10
66375;DHT22;53173;52.176;5.314;2023-05-07T16:16:38;17.30;98.10
66375;DHT22;53173;52.176;5.314;2023-05-07T16:19:06;17.30;98.00
66375;DHT22;53173;52.176;5.314;2023-05-07T16:21:53;17.30;97.90
66375;DHT22;53173;52.176;5.314;2023-05-07T16:24:20;17.40;97.90
66375;DHT22;53173;52.176;5.314;2023-05-07T16:26:47;17.40;98.00
66375;DHT22;53173;52.176;5.314;2023-05-07T16:29:14;17.40;98.30
66375;DHT22;53173;52.176;5.314;2023-05-07T16:31:46;17.40;97.70
66375;DHT22;53173;52.176;5.314;2023-05-07T16:34:13;17.50;97.60
66375;DHT22;53173;52.176;5.314;2023-05-07T16:36:40;17.60;97.40
66375;DHT22;53173;52.176;5.314;2023-05-07T16:39:07;17.60;97.30
66375;DHT22;53173;52.176;5.314;2023-05-07T16:41:40;17.60;97.30
66375;DHT22;53173;52.176;5.314;2023-05-07T16:44:06;17.70;97.30
66375;DHT22;53173;52.176;5.314;2023-05-07T16:46:35;17.70;97.20
66375;DHT22;53173;52.176;5.314;2023-05-07T16:49:02;17.70;97.20
66375;DHT22;53173;52.176;5.314;2023-05-07T16:51:28;17.70;97.10
66375;DHT22;53173;52.176;5.314;2023-05-07T16:53:55;17.70;97.00
66375;DHT22;53173;52.176;5.314;2023-05-07T16:56:22;17.70;96.90
66375;DHT22;53173;52.176;5.314;2023-05-07T16:58:49;17.70;96.80
66375;DHT22;53173;52.176;5.314;2023-05-07T17:01:16;17.60;96.90
66375;DHT22;53173;52.176;5.314;2023-05-07T17:03:44;17.70;96.90
66375;DHT22;53173;52.176;5.314;2023-05-07T17:06:11;17.70;96.80
66375;DHT22;53173;52.176;5.314;2023-05-07T17:08:41;17.80;96.80
66375;DHT22;53173;52.176;5.314;2023-05-07T17:11:09;17.90;96.80
66375;DHT22;53173;52.176;5.314;2023-05-07T17:13:36;17.90;96.90
66375;DHT22;53173;52.176;5.314;2023-05-07T17:16:03;17.80;97.10
66375;DHT22;53173;52.176;5.314;2023-05-07T17:18:30;17.90;97.30
66375;DHT22;53173;52.176;5.314;2023-05-07T17:20:57;18.00;97.10
66375;DHT22;53173;52.176;5.314;2023-05-07T17:23:24;18.10;97.30
66375;DHT22;53173;52.176;5.314;2023-05-07T17:25:51;18.10;96.70
66375;DHT22;53173;52.176;5.314;2023-05-07T17:28:18;18.20;96.70
66375;DHT22;53173;52.176;5.314;2023-05-07T17:30:45;18.20;96.90
66375;DHT22;53173;52.176;5.314;2023-05-07T17:33:39;18.10;96.90
66375;DHT22;53173;52.176;5.314;2023-05-07T17:36:06;18.10;97.00
66375;DHT22;53173;52.176;5.314;2023-05-07T17:38:34;18.00;97.00
66375;DHT22;53173;52.176;5.314;2023-05-07T17:41:01;18.00;97.20
66375;DHT22;53173;52.176;5.314;2023-05-07T17:43:28;18.10;97.20
66375;DHT22;53173;52.176;5.314;2023-05-07T17:45:55;18.00;97.10
66375;DHT22;53173;52.176;5.314;2023-05-07T17:48:22;18.00;97.20
66375;DHT22;53173;52.176;5.314;2023-05-07T17:50:49;18.00;97.00
66375;DHT22;53173;52.176;5.314;2023-05-07T17:53:31;18.00;97.00
66375;DHT22;53173;52.176;5.314;2023-05-07T17:55:58;18.00;96.80
66375;DHT22;53173;52.176;5.314;2023-05-07T17:58:25;17.90;96.90
66375;DHT22;53173;52.176;5.314;2023-05-07T18:00:53;18.00;96.80
66375;DHT22;53173;52.176;5.314;2023-05-07T18:03:21;18.10;96.80
66375;DHT22;53173;52.176;5.314;2023-05-07T18:05:50;18.00;96.70
66375;DHT22;53173;52.176;5.314;2023-05-07T18:08:17;18.10;96.60
66375;DHT22;53173;52.176;5.314;2023-05-07T18:10:44;18.10;96.50
66375;DHT22;53173;52.176;5.314;2023-05-07T18:13:16;18.10;96.50
66375;DHT22;53173;52.176;5.314;2023-05-07T18:15:44;18.10;96.50
66375;DHT22;53173;52.176;5.314;2023-05-07T18:18:12;18.10;96.90
66375;DHT22;53173;52.176;5.314;2023-05-07T18:20:39;18.10;96.50
66375;DHT22;53173;52.176;5.314;2023-05-07T18:23:06;18.10;96.50
66375;DHT22;53173;52.176;5.314;2023-05-07T18:25:33;18.10;96.60
66375;DHT22;53173;52.176;5.314;2023-05-07T18:28:00;18.10;96.80
66375;DHT22;53173;52.176;5.314;2023-05-07T18:30:27;18.00;96.80
66375;DHT22;53173;52.176;5.314;2023-05-07T18:33:19;18.10;96.90
66375;DHT22;53173;52.176;5.314;2023-05-07T18:35:46;18.00;96.90
66375;DHT22;53173;52.176;5.314;2023-05-07T18:38:13;18.10;97.00
66375;DHT22;53173;52.176;5.314;2023-05-07T18:40:40;18.00;97.00
66375;DHT22;53173;52.176;5.314;2023-05-07T18:43:35;18.00;97.00
66375;DHT22;53173;52.176;5.314;2023-05-07T18:46:02;18.00;96.90
66375;DHT22;53173;52.176;5.314;2023-05-07T18:48:29;18.00;96.90
66375;DHT22;53173;52.176;5.314;2023-05-07T18:50:56;17.90;96.90
66375;DHT22;53173;52.176;5.314;2023-05-07T18:53:28;17.90;96.80
66375;DHT22;53173;52.176;5.314;2023-05-07T18:55:55;17.90;96.90
66375;DHT22;53173;52.176;5.314;2023-05-07T18:58:22;17.90;97.10
66375;DHT22;53173;52.176;5.314;2023-05-07T19:00:49;17.90;97.10
66375;DHT22;53173;52.176;5.314;2023-05-07T19:03:22;17.90;97.00
66375;DHT22;53173;52.176;5.314;2023-05-07T19:05:49;18.00;97.00
66375;DHT22;53173;52.176;5.314;2023-05-07T19:08:16;18.00;97.00
66375;DHT22;53173;52.176;5.314;2023-05-07T19:10:43;17.80;96.90
66375;DHT22;53173;52.176;5.314;2023-05-07T19:13:15;17.80;96.80
66375;DHT22;53173;52.176;5.314;2023-05-07T19:15:42;17.80;96.70
66375;DHT22;53173;52.176;5.314;2023-05-07T19:18:09;17.70;96.60
66375;DHT22;53173;52.176;5.314;2023-05-07T19:20:36;17.70;96.60
66375;DHT22;53173;52.176;5.314;2023-05-07T19:23:03;17.70;96.70
66375;DHT22;53173;52.176;5.314;2023-05-07T19:25:32;17.70;96.80
66375;DHT22;53173;52.176;5.314;2023-05-07T19:27:59;17.50;96.80
66375;DHT22;53173;52.176;5.314;2023-05-07T19:30:26;17.60;97.10
66375;DHT22;53173;52.176;5.314;2023-05-07T19:33:18;17.50;97.30
66375;DHT22;53173;52.176;5.314;2023-05-07T19:35:45;17.50;97.50
66375;DHT22;53173;52.176;5.314;2023-05-07T19:38:12;17.40;97.70
66375;DHT22;53173;52.176;5.314;2023-05-07T19:40:39;17.40;97.70
66375;DHT22;53173;52.176;5.314;2023-05-07T19:43:07;17.40;97.70
66375;DHT22;53173;52.176;5.314;2023-05-07T19:45:34;17.40;97.60
66375;DHT22;53173;52.176;5.314;2023-05-07T19:48:01;17.40;97.70
66375;DHT22;53173;52.176;5.314;2023-05-07T19:50:28;17.30;97.60
66375;DHT22;53173;52.176;5.314;2023-05-07T19:53:05;17.20;97.60
66375;DHT22;53173;52.176;5.314;2023-05-07T19:55:32;17.10;97.60
66375;DHT22;53173;52.176;5.314;2023-05-07T19:57:59;17.10;97.90
66375;DHT22;53173;52.176;5.314;2023-05-07T20:00:26;17.20;98.10
66375;DHT22;53173;52.176;5.314;2023-05-07T20:03:13;17.00;98.00
66375;DHT22;53173;52.176;5.314;2023-05-07T20:05:47;16.90;97.80
66375;DHT22;53173;52.176;5.314;2023-05-07T20:08:14;16.80;97.90
66375;DHT22;53173;52.176;5.314;2023-05-07T20:10:41;16.80;98.10
66375;DHT22;53173;52.176;5.314;2023-05-07T20:13:08;16.70;98.20
66375;DHT22;53173;52.176;5.314;2023-05-07T20:15:38;16.70;98.30
66375;DHT22;53173;52.176;5.314;2023-05-07T20:18:08;16.70;98.30
66375;DHT22;53173;52.176;5.314;2023-05-07T20:20:36;16.70;98.20
66375;DHT22;53173;52.176;5.314;2023-05-07T20:23:03;16.60;98.30
66375;DHT22;53173;52.176;5.314;2023-05-07T20:25:29;16.80;98.40
66375;DHT22;53173;52.176;5.314;2023-05-07T20:27:56;16.60;98.40
66375;DHT22;53173;52.176;5.314;2023-05-07T20:30:23;16.70;98.50
66375;DHT22;53173;52.176;5.314;2023-05-07T20:33:05;16.50;98.40
66375;DHT22;53173;52.176;5.314;2023-05-07T20:35:33;16.60;98.40
66375;DHT22;53173;52.176;5.314;2023-05-07T20:38:00;16.50;98.40
66375;DHT22;53173;52.176;5.314;2023-05-07T20:40:27;16.50;98.40
66375;DHT22;53173;52.176;5.314;2023-05-07T20:42:59;16.60;98.40
66375;DHT22;53173;52.176;5.314;2023-05-07T20:45:27;16.40;98.30
66375;DHT22;53173;52.176;5.314;2023-05-07T20:47:54;16.40;98.20
66375;DHT22;53173;52.176;5.314;2023-05-07T20:50:23;16.60;98.20
66375;DHT22;53173;52.176;5.314;2023-05-07T20:53:00;16.30;98.20
66375;DHT22;53173;52.176;5.314;2023-05-07T20:55:27;16.20;98.20
66375;DHT22;53173;52.176;5.314;2023-05-07T20:57:54;16.10;98.40
66375;DHT22;53173;52.176;5.314;2023-05-07T21:00:21;16.20;98.50
66375;DHT22;53173;52.176;5.314;2023-05-07T21:02:53;16.20;98.50
66375;DHT22;53173;52.176;5.314;2023-05-07T21:05:20;16.20;98.50
66375;DHT22;53173;52.176;5.314;2023-05-07T21:07:47;16.20;98.50
66375;DHT22;53173;52.176;5.314;2023-05-07T21:10:14;16.20;98.50
66375;DHT22;53173;52.176;5.314;2023-05-07T21:12:41;16.20;98.50
66375;DHT22;53173;52.176;5.314;2023-05-07T21:15:08;16.20;98.40
66375;DHT22;53173;52.176;5.314;2023-05-07T21:17:35;16.20;98.30
66375;DHT22;53173;52.176;5.314;2023-05-07T21:20:03;16.10;97.90
66375;DHT22;53173;52.176;5.314;2023-05-07T21:22:30;16.10;97.50
66375;DHT22;53173;52.176;5.314;2023-05-07T21:24:58;16.10;97.30
66375;DHT22;53173;52.176;5.314;2023-05-07T21:27:27;16.20;97.20
66375;DHT22;53173;52.176;5.314;2023-05-07T21:29:55;16.00;97.00
66375;DHT22;53173;52.176;5.314;2023-05-07T21:32:44;16.20;97.00
66375;DHT22;53173;52.176;5.314;2023-05-07T21:35:11;16.00;96.90
66375;DHT22;53173;52.176;5.314;2023-05-07T21:37:38;15.90;97.00
66375;DHT22;53173;52.176;5.314;2023-05-07T21:40:05;16.00;97.10
66375;DHT22;53173;52.176;5.314;2023-05-07T21:42:32;15.80;97.20
66375;DHT22;53173;52.176;5.314;2023-05-07T21:44:59;15.80;97.30
66375;DHT22;53173;52.176;5.314;2023-05-07T21:47:26;15.70;97.30
66375;DHT22;53173;52.176;5.314;2023-05-07T21:49:53;15.70;97.30
66375;DHT22;53173;52.176;5.314;2023-05-07T21:52:20;15.70;97.20
66375;DHT22;53173;52.176;5.314;2023-05-07T21:54:52;15.70;97.10
66375;DHT22;53173;52.176;5.314;2023-05-07T21:57:19;15.60;97.00
66375;DHT22;53173;52.176;5.314;2023-05-07T21:59:46;15.50;97.20
66375;DHT22;53173;52.176;5.314;2023-05-07T22:02:19;15.60;97.30
66375;DHT22;53173;52.176;5.314;2023-05-07T22:04:46;15.90;97.40
66375;DHT22;53173;52.176;5.314;2023-05-07T22:07:13;15.40;97.30
66375;DHT22;53173;52.176;5.314;2023-05-07T22:09:39;15.50;97.30
66375;DHT22;53173;52.176;5.314;2023-05-07T22:12:06;15.40;97.50
66375;DHT22;53173;52.176;5.314;2023-05-07T22:14:33;15.50;97.70
66375;DHT22;53173;52.176;5.314;2023-05-07T22:17:00;15.30;97.60
66375;DHT22;53173;52.176;5.314;2023-05-07T22:19:27;15.70;97.70
66375;DHT22;53173;52.176;5.314;2023-05-07T22:21:59;15.50;97.60
66375;DHT22;53173;52.176;5.314;2023-05-07T22:24:28;15.40;97.50
66375;DHT22;53173;52.176;5.314;2023-05-07T22:26:55;15.30;97.40
66375;DHT22;53173;52.176;5.314;2023-05-07T22:29:21;15.20;97.40
66375;DHT22;53173;52.176;5.314;2023-05-07T22:31:59;15.20;97.60
66375;DHT22;53173;52.176;5.314;2023-05-07T22:34:26;15.30;97.70
66375;DHT22;53173;52.176;5.314;2023-05-07T22:36:53;15.10;97.70
66375;DHT22;53173;52.176;5.314;2023-05-07T22:39:19;15.40;97.80
66375;DHT22;53173;52.176;5.314;2023-05-07T22:41:51;15.10;97.80
66375;DHT22;53173;52.176;5.314;2023-05-07T22:44:18;15.10;97.80
66375;DHT22;53173;52.176;5.314;2023-05-07T22:46:45;15.10;97.80
66375;DHT22;53173;52.176;5.314;2023-05-07T22:49:12;15.70;97.90
66375;DHT22;53173;52.176;5.314;2023-05-07T22:51:39;15.10;97.90
66375;DHT22;53173;52.176;5.314;2023-05-07T22:54:06;15.50;98.00
66375;DHT22;53173;52.176;5.314;2023-05-07T22:56:34;15.20;98.00
66375;DHT22;53173;52.176;5.314;2023-05-07T22:59:01;15.10;97.90
66375;DHT22;53173;52.176;5.314;2023-05-07T23:01:28;15.10;97.80
66375;DHT22;53173;52.176;5.314;2023-05-07T23:03:55;15.20;97.70
66375;DHT22;53173;52.176;5.314;2023-05-07T23:06:22;15.10;97.80
66375;DHT22;53173;52.176;5.314;2023-05-07T23:08:49;15.60;98.00
66375;DHT22;53173;52.176;5.314;2023-05-07T23:11:16;15.10;98.00
66375;DHT22;53173;52.176;5.314;2023-05-07T23:13:43;15.20;98.10
66375;DHT22;53173;52.176;5.314;2023-05-07T23:16:09;15.00;98.30
66375;DHT22;53173;52.176;5.314;2023-05-07T23:18:36;15.20;98.80
66375;DHT22;53173;52.176;5.314;2023-05-07T23:21:03;15.50;98.60
66375;DHT22;53173;52.176;5.314;2023-05-07T23:23:33;15.00;98.40
66375;DHT22;53173;52.176;5.314;2023-05-07T23:26:00;15.20;98.40
66375;DHT22;53173;52.176;5.314;2023-05-07T23:28:27;15.20;98.30
66375;DHT22;53173;52.176;5.314;2023-05-07T23:30:54;15.00;98.20
66375;DHT22;53173;52.176;5.314;2023-05-07T23:33:20;15.00;98.20
66375;DHT22;53173;52.176;5.314;2023-05-07T23:35:47;15.00;98.60
66375;DHT22;53173;52.176;5.314;2023-05-07T23:38:14;15.30;98.20
66375;DHT22;53173;52.176;5.314;2023-05-07T23:40:41;15.10;98.20
66375;DHT22;53173;52.176;5.314;2023-05-07T23:43:08;14.90;98.20
66375;DHT22;53173;52.176;5.314;2023-05-07T23:45:34;14.80;98.10
66375;DHT22;53173;52.176;5.314;2023-05-07T23:48:01;14.90;98.10
66375;DHT22;53173;52.176;5.314;2023-05-07T23:50:28;14.80;98.00
66375;DHT22;53173;52.176;5.314;2023-05-07T23:52:55;15.20;98.10
66375;DHT22;53173;52.176;5.314;2023-05-07T23:55:22;15.20;98.00
66375;DHT22;53173;52.176;5.314;2023-05-07T23:57:48;14.80;97.80
